sensor_id;sensor_type;location;lat;lon;timestamp;pressure;altitude;pressure_sealevel;temperature;humidity
55044;BME280;54902;50.420;18.854;2022-10-15T00:00:13;101279.46;;;12.71;74.80
55044;BME280;54902;50.420;18.854;2022-10-15T00:00:44;101278.56;;;12.71;74.76
55044;BME280;54902;50.420;18.854;2022-10-15T00:01:16;101281.31;;;12.71;74.81
55044;BME280;54902;50.420;18.854;2022-10-15T00:01:48;101279.46;;;12.71;74.78
55044;BME280;54902;50.420;18.854;2022-10-15T00:02:18;101273.98;;;12.71;74.86
55044;BME280;54902;50.420;18.854;2022-10-15T00:02:49;101274.97;;;12.70;74.90
55044;BME280;54902;50.420;18.854;2022-10-15T00:03:20;101278.44;;;12.72;74.91
55044;BME280;54902;50.420;18.854;2022-10-15T00:03:51;101282.20;;;12.71;74.95
55044;BME280;54902;50.420;18.854;2022-10-15T00:04:22;101276.72;;;12.71;74.86
55044;BME280;54902;50.420;18.854;2022-10-15T00:04:53;101278.44;;;12.72;74.81
55044;BME280;54902;50.420;18.854;2022-10-15T00:05:24;101276.72;;;12.71;74.79
55044;BME280;54902;50.420;18.854;2022-10-15T00:05:56;101270.34;;;12.71;74.82
55044;BME280;54902;50.420;18.854;2022-10-15T00:06:27;101282.20;;;12.71;74.81
55044;BME280;54902;50.420;18.854;2022-10-15T00:06:58;101277.58;;;12.72;74.80
55044;BME280;54902;50.420;18.854;2022-10-15T00:07:29;101275.82;;;12.71;74.81
55044;BME280;54902;50.420;18.854;2022-10-15T00:08:00;101277.58;;;12.72;74.84
55044;BME280;54902;50.420;18.854;2022-10-15T00:08:31;101272.09;;;12.72;74.78
55044;BME280;54902;50.420;18.854;2022-10-15T00:09:02;101274.84;;;12.72;74.76
55044;BME280;54902;50.420;18.854;2022-10-15T00:09:33;101272.95;;;12.72;74.78
55044;BME280;54902;50.420;18.854;2022-10-15T00:10:04;101278.44;;;12.72;74.72
55044;BME280;54902;50.420;18.854;2022-10-15T00:10:36;101271.24;;;12.71;74.73
55044;BME280;54902;50.420;18.854;2022-10-15T00:11:10;101278.44;;;12.72;74.73
55044;BME280;54902;50.420;18.854;2022-10-15T00:11:42;101275.70;;;12.72;74.70
55044;BME280;54902;50.420;18.854;2022-10-15T00:12:12;101275.70;;;12.72;74.70
55044;BME280;54902;50.420;18.854;2022-10-15T00:12:43;101268.36;;;12.73;74.72
55044;BME280;54902;50.420;18.854;2022-10-15T00:13:14;101264.72;;;12.72;74.72
55044;BME280;54902;50.420;18.854;2022-10-15T00:13:45;101269.21;;;12.73;74.74
55044;BME280;54902;50.420;18.854;2022-10-15T00:14:17;101276.45;;;12.74;74.76
55044;BME280;54902;50.420;18.854;2022-10-15T00:14:47;101271.82;;;12.75;74.75
55044;BME280;54902;50.420;18.854;2022-10-15T00:15:18;101274.70;;;12.73;74.74
55044;BME280;54902;50.420;18.854;2022-10-15T00:15:49;101269.08;;;12.75;74.76
55044;BME280;54902;50.420;18.854;2022-10-15T00:16:24;101270.97;;;12.74;74.75
55044;BME280;54902;50.420;18.854;2022-10-15T00:16:55;101271.69;;;12.76;74.74
55044;BME280;54902;50.420;18.854;2022-10-15T00:17:26;101274.43;;;12.76;74.74
55044;BME280;54902;50.420;18.854;2022-10-15T00:17:57;101271.69;;;12.76;74.74
55044;BME280;54902;50.420;18.854;2022-10-15T00:18:28;101264.36;;;12.77;74.74
55044;BME280;54902;50.420;18.854;2022-10-15T00:18:59;101269.84;;;12.77;74.76
55044;BME280;54902;50.420;18.854;2022-10-15T00:19:30;101265.21;;;12.77;74.75
55044;BME280;54902;50.420;18.854;2022-10-15T00:20:05;101265.21;;;12.77;74.76
55044;BME280;54902;50.420;18.854;2022-10-15T00:20:40;101280.66;;;12.78;74.78
55044;BME280;54902;50.420;18.854;2022-10-15T00:21:13;101274.20;;;12.79;74.77
55044;BME280;54902;50.420;18.854;2022-10-15T00:21:44;101272.45;;;12.78;74.77
55044;BME280;54902;50.420;18.854;2022-10-15T00:22:15;101267.82;;;12.78;74.77
55044;BME280;54902;50.420;18.854;2022-10-15T00:22:46;101274.20;;;12.79;74.76
55044;BME280;54902;50.420;18.854;2022-10-15T00:23:17;101275.91;;;12.80;74.75
55044;BME280;54902;50.420;18.854;2022-10-15T00:23:49;101268.71;;;12.79;74.75
55044;BME280;54902;50.420;18.854;2022-10-15T00:24:20;101264.94;;;12.80;74.75
55044;BME280;54902;50.420;18.854;2022-10-15T00:24:51;101270.43;;;12.80;74.77
55044;BME280;54902;50.420;18.854;2022-10-15T00:25:22;101269.44;;;12.81;74.77
55044;BME280;54902;50.420;18.854;2022-10-15T00:26:02;101267.55;;;12.81;74.79
55044;BME280;54902;50.420;18.854;2022-10-15T00:26:34;101276.66;;;12.82;74.77
55044;BME280;54902;50.420;18.854;2022-10-15T00:27:04;101272.94;;;12.83;74.77
55044;BME280;54902;50.420;18.854;2022-10-15T00:27:36;101273.92;;;12.82;74.76
55044;BME280;54902;50.420;18.854;2022-10-15T00:28:07;101266.55;;;12.82;74.76
55044;BME280;54902;50.420;18.854;2022-10-15T00:28:38;101270.19;;;12.83;74.74
55044;BME280;54902;50.420;18.854;2022-10-15T00:29:09;101266.55;;;12.82;74.73
55044;BME280;54902;50.420;18.854;2022-10-15T00:29:40;101264.70;;;12.83;74.75
55044;BME280;54902;50.420;18.854;2022-10-15T00:30:12;101266.42;;;12.84;74.75
55044;BME280;54902;50.420;18.854;2022-10-15T00:30:43;101272.79;;;12.84;74.75
55044;BME280;54902;50.420;18.854;2022-10-15T00:31:15;101268.20;;;12.85;74.77
55044;BME280;54902;50.420;18.854;2022-10-15T00:31:46;101266.42;;;12.84;74.75
55044;BME280;54902;50.420;18.854;2022-10-15T00:32:17;101276.43;;;12.85;74.73
55044;BME280;54902;50.420;18.854;2022-10-15T00:32:48;101268.20;;;12.85;74.74
55044;BME280;54902;50.420;18.854;2022-10-15T00:33:19;101268.20;;;12.85;74.74
55044;BME280;54902;50.420;18.854;2022-10-15T00:33:54;101264.56;;;12.84;74.75
55044;BME280;54902;50.420;18.854;2022-10-15T00:34:25;101276.30;;;12.86;74.75
55044;BME280;54902;50.420;18.854;2022-10-15T00:34:57;101264.47;;;12.86;74.75
55044;BME280;54902;50.420;18.854;2022-10-15T00:35:28;101266.35;;;12.85;74.78
55044;BME280;54902;50.420;18.854;2022-10-15T00:36:04;101259.84;;;12.86;74.76
55044;BME280;54902;50.420;18.854;2022-10-15T00:36:36;101261.73;;;12.86;74.73
55044;BME280;54902;50.420;18.854;2022-10-15T00:37:08;101262.71;;;12.85;74.74
55044;BME280;54902;50.420;18.854;2022-10-15T00:37:39;101272.70;;;12.86;74.75
55044;BME280;54902;50.420;18.854;2022-10-15T00:38:10;101269.95;;;12.86;74.74
55044;BME280;54902;50.420;18.854;2022-10-15T00:38:41;101269.95;;;12.86;74.75
55044;BME280;54902;50.420;18.854;2022-10-15T00:39:12;101264.47;;;12.86;74.74
55044;BME280;54902;50.420;18.854;2022-10-15T00:39:43;101263.47;;;12.87;74.72
55044;BME280;54902;50.420;18.854;2022-10-15T00:40:14;101268.95;;;12.87;74.73
55044;BME280;54902;50.420;18.854;2022-10-15T00:40:45;101264.47;;;12.86;74.70
55044;BME280;54902;50.420;18.854;2022-10-15T00:41:20;101268.06;;;12.86;74.71
55044;BME280;54902;50.420;18.854;2022-10-15T00:41:51;101262.71;;;12.85;74.70
55044;BME280;54902;50.420;18.854;2022-10-15T00:42:22;101264.47;;;12.86;74.71
55044;BME280;54902;50.420;18.854;2022-10-15T00:42:53;101262.71;;;12.85;74.71
55044;BME280;54902;50.420;18.854;2022-10-15T00:44:56;101268.20;;;12.85;74.71
55044;BME280;54902;50.420;18.854;2022-10-15T00:45:27;101258.19;;;12.84;74.68
55044;BME280;54902;50.420;18.854;2022-10-15T00:45:58;101268.20;;;12.85;74.69
55044;BME280;54902;50.420;18.854;2022-10-15T00:46:37;101259.22;;;12.83;74.68
55044;BME280;54902;50.420;18.854;2022-10-15T00:47:17;101270.05;;;12.84;74.68
55044;BME280;54902;50.420;18.854;2022-10-15T00:47:48;101267.45;;;12.83;74.68
55044;BME280;54902;50.420;18.854;2022-10-15T00:48:20;101259.22;;;12.83;74.67
55044;BME280;54902;50.420;18.854;2022-10-15T00:49:00;101264.70;;;12.83;74.67
55044;BME280;54902;50.420;18.854;2022-10-15T00:49:44;101264.70;;;12.83;74.67
55044;BME280;54902;50.420;18.854;2022-10-15T00:50:21;101268.43;;;12.82;74.67
55044;BME280;54902;50.420;18.854;2022-10-15T00:50:53;101263.81;;;12.82;74.65
55044;BME280;54902;50.420;18.854;2022-10-15T00:51:29;101266.70;;;12.81;74.54
55044;BME280;54902;50.420;18.854;2022-10-15T00:52:05;101255.72;;;12.81;74.64
55044;BME280;54902;50.420;18.854;2022-10-15T00:52:44;101256.71;;;12.80;74.65
55044;BME280;54902;50.420;18.854;2022-10-15T00:53:16;101260.35;;;12.80;74.66
55044;BME280;54902;50.420;18.854;2022-10-15T00:53:48;101256.57;;;12.81;74.65
55044;BME280;54902;50.420;18.854;2022-10-15T00:54:20;101260.35;;;12.80;74.66
55044;BME280;54902;50.420;18.854;2022-10-15T00:54:57;101252.25;;;12.79;74.66
55044;BME280;54902;50.420;18.854;2022-10-15T00:55:32;101259.45;;;12.80;74.66
55044;BME280;54902;50.420;18.854;2022-10-15T00:56:04;101261.34;;;12.79;74.65
55044;BME280;54902;50.420;18.854;2022-10-15T00:56:36;101250.52;;;12.78;74.65
55044;BME280;54902;50.420;18.854;2022-10-15T00:57:10;101250.52;;;12.78;74.67
55044;BME280;54902;50.420;18.854;2022-10-15T00:57:47;101258.74;;;12.78;74.67
55044;BME280;54902;50.420;18.854;2022-10-15T00:58:20;101255.99;;;12.78;74.65
55044;BME280;54902;50.420;18.854;2022-10-15T00:58:58;101252.25;;;12.79;74.66
55044;BME280;54902;50.420;18.854;2022-10-15T00:59:30;101251.37;;;12.78;74.66
55044;BME280;54902;50.420;18.854;2022-10-15T01:00:08;101246.87;;;12.77;74.66
55044;BME280;54902;50.420;18.854;2022-10-15T01:00:40;101256.85;;;12.78;74.68
55044;BME280;54902;50.420;18.854;2022-10-15T01:01:12;101246.87;;;12.77;74.67
55044;BME280;54902;50.420;18.854;2022-10-15T01:01:43;101248.76;;;12.77;74.66
55044;BME280;54902;50.420;18.854;2022-10-15T01:02:17;101246.02;;;12.77;74.67
55044;BME280;54902;50.420;18.854;2022-10-15T01:02:48;101248.76;;;12.77;74.68
55044;BME280;54902;50.420;18.854;2022-10-15T01:03:19;101245.16;;;12.77;74.67
55044;BME280;54902;50.420;18.854;2022-10-15T01:03:52;101243.27;;;12.77;74.68
55044;BME280;54902;50.420;18.854;2022-10-15T01:04:25;101249.75;;;12.76;74.68
55044;BME280;54902;50.420;18.854;2022-10-15T01:04:57;101249.62;;;12.77;74.69
55044;BME280;54902;50.420;18.854;2022-10-15T01:05:28;101243.41;;;12.76;74.70
55044;BME280;54902;50.420;18.854;2022-10-15T01:05:59;101248.76;;;12.77;74.70
55044;BME280;54902;50.420;18.854;2022-10-15T01:06:30;101245.16;;;12.77;74.70
55044;BME280;54902;50.420;18.854;2022-10-15T01:07:02;101242.42;;;12.77;74.72
55044;BME280;54902;50.420;18.854;2022-10-15T01:07:33;101241.52;;;12.76;74.72
55044;BME280;54902;50.420;18.854;2022-10-15T01:08:04;101241.52;;;12.76;74.72
55044;BME280;54902;50.420;18.854;2022-10-15T01:08:35;101247.89;;;12.77;74.71
55044;BME280;54902;50.420;18.854;2022-10-15T01:09:06;101244.27;;;12.76;74.72
55044;BME280;54902;50.420;18.854;2022-10-15T01:09:38;101244.27;;;12.76;74.73
55044;BME280;54902;50.420;18.854;2022-10-15T01:10:12;101241.52;;;12.76;74.72
55044;BME280;54902;50.420;18.854;2022-10-15T01:12:18;101242.42;;;12.77;74.71
55044;BME280;54902;50.420;18.854;2022-10-15T01:15:45;101247.89;;;12.77;74.75
55044;BME280;54902;50.420;18.854;2022-10-15T01:16:31;101241.52;;;12.76;74.73
55044;BME280;54902;50.420;18.854;2022-10-15T01:16:37;101236.93;;;12.77;74.74
55044;BME280;54902;50.420;18.854;2022-10-15T01:17:59;101234.33;;;12.75;74.76
55044;BME280;54902;50.420;18.854;2022-10-15T01:18:43;101234.33;;;12.75;74.74
55044;BME280;54902;50.420;18.854;2022-10-15T01:19:24;101234.33;;;12.75;74.74
55044;BME280;54902;50.420;18.854;2022-10-15T01:20:49;101232.58;;;12.74;74.74
55044;BME280;54902;50.420;18.854;2022-10-15T01:21:32;101235.32;;;12.74;74.75
55044;BME280;54902;50.420;18.854;2022-10-15T01:22:21;101227.10;;;12.74;74.73
55044;BME280;54902;50.420;18.854;2022-10-15T01:24:59;101231.68;;;12.74;74.74
55044;BME280;54902;50.420;18.854;2022-10-15T01:27:08;101232.72;;;12.73;74.76
55044;BME280;54902;50.420;18.854;2022-10-15T01:27:43;101231.83;;;12.72;74.76
55044;BME280;54902;50.420;18.854;2022-10-15T01:32:03;101230.98;;;12.72;74.75
55044;BME280;54902;50.420;18.854;2022-10-15T01:32:37;101221.89;;;12.71;74.75
55044;BME280;54902;50.420;18.854;2022-10-15T01:34:03;101221.89;;;12.71;74.78
55044;BME280;54902;50.420;18.854;2022-10-15T01:36:10;101223.60;;;12.72;74.79
55044;BME280;54902;50.420;18.854;2022-10-15T01:36:56;101221.00;;;12.71;74.78
55044;BME280;54902;50.420;18.854;2022-10-15T01:39:44;101223.60;;;12.72;74.79
55044;BME280;54902;50.420;18.854;2022-10-15T01:40:27;101225.48;;;12.72;74.77
55044;BME280;54902;50.420;18.854;2022-10-15T01:41:51;101218.12;;;12.72;74.79
55044;BME280;54902;50.420;18.854;2022-10-15T01:42:31;101218.12;;;12.72;74.79
55044;BME280;54902;50.420;18.854;2022-10-15T01:43:06;101215.37;;;12.72;74.78
55044;BME280;54902;50.420;18.854;2022-10-15T01:44:28;101219.87;;;12.73;74.79
55044;BME280;54902;50.420;18.854;2022-10-15T01:45:08;101212.63;;;12.72;74.79
55044;BME280;54902;50.420;18.854;2022-10-15T01:45:46;101214.52;;;12.72;74.77
55044;BME280;54902;50.420;18.854;2022-10-15T01:46:22;101212.63;;;12.72;74.79
55044;BME280;54902;50.420;18.854;2022-10-15T01:47:05;101208.90;;;12.73;74.80
55044;BME280;54902;50.420;18.854;2022-10-15T01:48:21;101210.78;;;12.73;74.79
55044;BME280;54902;50.420;18.854;2022-10-15T01:48:55;101203.34;;;12.64;74.77
55044;BME280;54902;50.420;18.854;2022-10-15T01:49:30;101215.23;;;12.74;74.80
55044;BME280;54902;50.420;18.854;2022-10-15T01:50:05;101212.63;;;12.72;74.78
55044;BME280;54902;50.420;18.854;2022-10-15T01:50:43;101213.52;;;12.73;74.80
55044;BME280;54902;50.420;18.854;2022-10-15T01:51:16;101208.90;;;12.73;74.79
55044;BME280;54902;50.420;18.854;2022-10-15T01:51:49;101212.63;;;12.72;74.78
55044;BME280;54902;50.420;18.854;2022-10-15T01:52:28;101204.40;;;12.72;74.79
55044;BME280;54902;50.420;18.854;2022-10-15T01:53:01;101204.40;;;12.72;74.78
55044;BME280;54902;50.420;18.854;2022-10-15T01:53:35;101210.92;;;12.71;74.77
55044;BME280;54902;50.420;18.854;2022-10-15T01:54:11;101201.66;;;12.72;74.79
55044;BME280;54902;50.420;18.854;2022-10-15T01:54:46;101199.95;;;12.71;74.78
55044;BME280;54902;50.420;18.854;2022-10-15T01:55:20;101211.77;;;12.72;74.78
55044;BME280;54902;50.420;18.854;2022-10-15T01:55:59;101210.92;;;12.71;74.75
55044;BME280;54902;50.420;18.854;2022-10-15T01:56:33;101209.03;;;12.72;74.78
55044;BME280;54902;50.420;18.854;2022-10-15T01:57:06;101203.68;;;12.70;74.78
55044;BME280;54902;50.420;18.854;2022-10-15T01:57:42;101204.55;;;12.71;74.79
55044;BME280;54902;50.420;18.854;2022-10-15T01:58:16;101200.05;;;12.70;74.77
55044;BME280;54902;50.420;18.854;2022-10-15T01:58:50;101203.68;;;12.70;74.77
55044;BME280;54902;50.420;18.854;2022-10-15T01:59:25;101208.27;;;12.70;74.78
55044;BME280;54902;50.420;18.854;2022-10-15T01:59:58;101203.68;;;12.70;74.77
55044;BME280;54902;50.420;18.854;2022-10-15T02:00:29;101203.68;;;12.70;74.78
55044;BME280;54902;50.420;18.854;2022-10-15T02:01:00;101204.67;;;12.69;74.78
55044;BME280;54902;50.420;18.854;2022-10-15T02:01:31;101205.54;;;12.70;74.77
55044;BME280;54902;50.420;18.854;2022-10-15T02:02:02;101202.08;;;12.68;74.78
55044;BME280;54902;50.420;18.854;2022-10-15T02:02:33;101203.82;;;12.69;74.78
55044;BME280;54902;50.420;18.854;2022-10-15T02:03:04;101203.82;;;12.69;74.78
55044;BME280;54902;50.420;18.854;2022-10-15T02:04:30;101199.34;;;12.68;74.78
55044;BME280;54902;50.420;18.854;2022-10-15T02:04:57;101207.55;;;12.68;74.80
55044;BME280;54902;50.420;18.854;2022-10-15T02:05:35;101208.41;;;12.68;74.80
55044;BME280;54902;50.420;18.854;2022-10-15T02:06:09;101204.82;;;12.68;74.78
55044;BME280;54902;50.420;18.854;2022-10-15T02:06:44;101208.41;;;12.68;74.79
55044;BME280;54902;50.420;18.854;2022-10-15T02:08:07;101202.20;;;12.66;74.80
55044;BME280;54902;50.420;18.854;2022-10-15T02:08:56;101207.69;;;12.66;74.79
55044;BME280;54902;50.420;18.854;2022-10-15T02:11:03;101205.09;;;12.65;74.77
55044;BME280;54902;50.420;18.854;2022-10-15T02:11:43;101196.96;;;12.63;74.79
55044;BME280;54902;50.420;18.854;2022-10-15T02:12:26;101193.37;;;12.63;74.78
55044;BME280;54902;50.420;18.854;2022-10-15T02:13:06;101196.96;;;12.63;74.77
55044;BME280;54902;50.420;18.854;2022-10-15T02:13:53;101189.77;;;12.62;74.77
55044;BME280;54902;50.420;18.854;2022-10-15T02:14:36;101195.25;;;12.62;74.77
55044;BME280;54902;50.420;18.854;2022-10-15T02:15:18;101189.91;;;12.61;74.76
55044;BME280;54902;50.420;18.854;2022-10-15T02:16:42;101190.01;;;12.59;74.75
55044;BME280;54902;50.420;18.854;2022-10-15T02:17:15;101188.16;;;12.60;74.77
55044;BME280;54902;50.420;18.854;2022-10-15T02:18:40;101195.63;;;12.58;74.75
55044;BME280;54902;50.420;18.854;2022-10-15T02:19:20;101191.17;;;12.57;74.75
55044;BME280;54902;50.420;18.854;2022-10-15T02:20:04;101182.05;;;12.56;74.77
55044;BME280;54902;50.420;18.854;2022-10-15T02:21:33;101191.27;;;12.55;74.78
55044;BME280;54902;50.420;18.854;2022-10-15T02:22:13;101188.67;;;12.54;74.75
55044;BME280;54902;50.420;18.854;2022-10-15T02:22:51;101190.55;;;12.53;74.74
55044;BME280;54902;50.420;18.854;2022-10-15T02:24:14;101185.07;;;12.53;74.73
55044;BME280;54902;50.420;18.854;2022-10-15T02:24:52;101183.31;;;12.52;74.75
55044;BME280;54902;50.420;18.854;2022-10-15T02:25:27;101176.09;;;12.51;74.74
55044;BME280;54902;50.420;18.854;2022-10-15T02:25:58;101179.86;;;12.50;74.75
55044;BME280;54902;50.420;18.854;2022-10-15T02:26:29;101180.84;;;12.49;74.74
55044;BME280;54902;50.420;18.854;2022-10-15T02:27:01;101183.59;;;12.49;74.75
55044;BME280;54902;50.420;18.854;2022-10-15T02:27:34;101182.70;;;12.49;74.76
55044;BME280;54902;50.420;18.854;2022-10-15T02:28:07;101179.23;;;12.47;74.74
55044;BME280;54902;50.420;18.854;2022-10-15T02:28:41;101180.09;;;12.47;74.75
55044;BME280;54902;50.420;18.854;2022-10-15T02:29:17;101172.90;;;12.46;74.73
55044;BME280;54902;50.420;18.854;2022-10-15T02:29:49;101182.98;;;12.46;74.74
55044;BME280;54902;50.420;18.854;2022-10-15T02:30:23;101182.11;;;12.45;74.75
55044;BME280;54902;50.420;18.854;2022-10-15T02:30:56;101181.22;;;12.45;74.74
55044;BME280;54902;50.420;18.854;2022-10-15T02:31:30;101180.36;;;12.44;74.75
55044;BME280;54902;50.420;18.854;2022-10-15T02:32:05;101176.77;;;12.44;74.77
55044;BME280;54902;50.420;18.854;2022-10-15T02:32:39;101171.39;;;12.42;74.74
55044;BME280;54902;50.420;18.854;2022-10-15T02:33:11;101178.75;;;12.42;74.75
55044;BME280;54902;50.420;18.854;2022-10-15T02:33:43;101176.87;;;12.42;74.73
55044;BME280;54902;50.420;18.854;2022-10-15T02:34:19;101177.89;;;12.41;74.76
55044;BME280;54902;50.420;18.854;2022-10-15T02:34:51;101179.75;;;12.41;74.79
55044;BME280;54902;50.420;18.854;2022-10-15T02:35:25;101178.04;;;12.40;74.75
55044;BME280;54902;50.420;18.854;2022-10-15T02:35:58;101177.13;;;12.39;74.77
55044;BME280;54902;50.420;18.854;2022-10-15T02:36:29;101174.40;;;12.39;74.77
55044;BME280;54902;50.420;18.854;2022-10-15T02:37:02;101171.80;;;12.38;74.77
55044;BME280;54902;50.420;18.854;2022-10-15T02:37:34;101172.65;;;12.38;74.78
55044;BME280;54902;50.420;18.854;2022-10-15T02:38:07;101169.91;;;12.38;74.80
55044;BME280;54902;50.420;18.854;2022-10-15T02:38:42;101168.20;;;12.37;74.82
55044;BME280;54902;50.420;18.854;2022-10-15T02:39:20;101168.20;;;12.37;74.81
55044;BME280;54902;50.420;18.854;2022-10-15T02:39:51;101170.05;;;12.37;74.82
55044;BME280;54902;50.420;18.854;2022-10-15T02:40:26;101170.94;;;12.37;74.82
55044;BME280;54902;50.420;18.854;2022-10-15T02:40:59;101169.20;;;12.36;74.82
55044;BME280;54902;50.420;18.854;2022-10-15T02:41:33;101165.59;;;12.36;74.82
55044;BME280;54902;50.420;18.854;2022-10-15T02:42:05;101143.56;;;12.26;74.83
55044;BME280;54902;50.420;18.854;2022-10-15T02:42:36;101157.47;;;12.34;74.83
55044;BME280;54902;50.420;18.854;2022-10-15T02:43:09;101156.61;;;12.34;74.82
55044;BME280;54902;50.420;18.854;2022-10-15T02:43:41;101156.48;;;12.35;74.84
55044;BME280;54902;50.420;18.854;2022-10-15T02:44:12;101150.28;;;12.33;74.84
55044;BME280;54902;50.420;18.854;2022-10-15T02:44:43;101161.24;;;12.33;74.87
55044;BME280;54902;50.420;18.854;2022-10-15T02:45:14;101146.06;;;12.29;74.85
55044;BME280;54902;50.420;18.854;2022-10-15T02:45:45;101143.05;;;12.32;74.87
55044;BME280;54902;50.420;18.854;2022-10-15T02:46:16;101150.41;;;12.32;74.88
55044;BME280;54902;50.420;18.854;2022-10-15T02:46:48;101152.27;;;12.31;74.88
55044;BME280;54902;50.420;18.854;2022-10-15T02:47:19;101150.41;;;12.32;74.89
55044;BME280;54902;50.420;18.854;2022-10-15T02:47:50;101146.79;;;12.31;74.90
55044;BME280;54902;50.420;18.854;2022-10-15T02:48:21;101148.67;;;12.31;74.92
55044;BME280;54902;50.420;18.854;2022-10-15T02:48:52;101150.52;;;12.30;74.91
55044;BME280;54902;50.420;18.854;2022-10-15T02:49:23;101150.52;;;12.30;74.92
55044;BME280;54902;50.420;18.854;2022-10-15T02:49:54;101150.52;;;12.30;74.91
55044;BME280;54902;50.420;18.854;2022-10-15T02:50:25;101146.91;;;12.30;74.90
55044;BME280;54902;50.420;18.854;2022-10-15T02:50:56;101148.80;;;12.29;74.92
55044;BME280;54902;50.420;18.854;2022-10-15T02:51:31;101152.53;;;12.28;74.90
55044;BME280;54902;50.420;18.854;2022-10-15T02:52:02;101150.66;;;12.29;74.91
55044;BME280;54902;50.420;18.854;2022-10-15T02:52:33;101151.64;;;12.28;74.94
55044;BME280;54902;50.420;18.854;2022-10-15T02:53:04;101151.64;;;12.28;74.92
55044;BME280;54902;50.420;18.854;2022-10-15T02:53:35;101150.79;;;12.27;74.93
55044;BME280;54902;50.420;18.854;2022-10-15T02:54:07;101149.04;;;12.26;74.92
55044;BME280;54902;50.420;18.854;2022-10-15T02:54:38;101149.04;;;12.26;74.92
55044;BME280;54902;50.420;18.854;2022-10-15T02:55:09;101149.04;;;12.26;74.91
55044;BME280;54902;50.420;18.854;2022-10-15T02:55:40;101144.59;;;12.25;74.94
55044;BME280;54902;50.420;18.854;2022-10-15T02:56:11;101147.32;;;12.25;74.94
55044;BME280;54902;50.420;18.854;2022-10-15T02:56:42;101151.91;;;12.25;74.92
55044;BME280;54902;50.420;18.854;2022-10-15T02:57:13;101146.44;;;12.25;74.93
55044;BME280;54902;50.420;18.854;2022-10-15T02:57:44;101151.05;;;12.24;74.96
55044;BME280;54902;50.420;18.854;2022-10-15T02:58:15;101141.09;;;12.23;74.95
55044;BME280;54902;50.420;18.854;2022-10-15T02:58:46;101152.05;;;12.23;74.95
55044;BME280;54902;50.420;18.854;2022-10-15T02:59:17;101153.04;;;12.22;74.94
55044;BME280;54902;50.420;18.854;2022-10-15T02:59:49;101148.45;;;12.23;74.95
55044;BME280;54902;50.420;18.854;2022-10-15T03:00:20;101145.85;;;12.21;74.95
55044;BME280;54902;50.420;18.854;2022-10-15T03:00:51;101139.34;;;12.22;74.96
55044;BME280;54902;50.420;18.854;2022-10-15T03:01:22;101138.63;;;12.20;74.95
55044;BME280;54902;50.420;18.854;2022-10-15T03:01:53;101142.23;;;12.21;74.96
55044;BME280;54902;50.420;18.854;2022-10-15T03:02:24;101139.61;;;12.19;74.94
55044;BME280;54902;50.420;18.854;2022-10-15T03:02:55;101139.61;;;12.19;74.96
55044;BME280;54902;50.420;18.854;2022-10-15T03:03:26;101140.60;;;12.18;74.96
55044;BME280;54902;50.420;18.854;2022-10-15T03:03:56;101138.75;;;12.19;74.96
55044;BME280;54902;50.420;18.854;2022-10-15T03:04:27;101136.01;;;12.19;74.98
55044;BME280;54902;50.420;18.854;2022-10-15T03:04:58;101135.26;;;12.17;74.97
55044;BME280;54902;50.420;18.854;2022-10-15T03:05:29;101138.85;;;12.18;74.97
55044;BME280;54902;50.420;18.854;2022-10-15T03:06:00;101137.14;;;12.17;74.97
55044;BME280;54902;50.420;18.854;2022-10-15T03:06:32;101137.14;;;12.17;74.97
55044;BME280;54902;50.420;18.854;2022-10-15T03:07:03;101132.52;;;12.17;74.97
55044;BME280;54902;50.420;18.854;2022-10-15T03:07:34;101140.87;;;12.16;74.99
55044;BME280;54902;50.420;18.854;2022-10-15T03:08:05;101129.06;;;12.15;74.97
55044;BME280;54902;50.420;18.854;2022-10-15T03:08:36;101127.31;;;12.14;74.81
55044;BME280;54902;50.420;18.854;2022-10-15T03:09:07;101131.90;;;12.14;75.01
55044;BME280;54902;50.420;18.854;2022-10-15T03:09:37;101134.64;;;12.14;74.99
55044;BME280;54902;50.420;18.854;2022-10-15T03:10:08;101131.04;;;12.13;75.01
55044;BME280;54902;50.420;18.854;2022-10-15T03:10:39;101128.30;;;12.13;75.00
55044;BME280;54902;50.420;18.854;2022-10-15T03:11:10;101124.70;;;12.13;74.98
55044;BME280;54902;50.420;18.854;2022-10-15T03:11:41;101124.70;;;12.13;75.00
55044;BME280;54902;50.420;18.854;2022-10-15T03:12:12;101125.70;;;12.12;75.00
55044;BME280;54902;50.420;18.854;2022-10-15T03:12:43;101125.70;;;12.12;75.02
55044;BME280;54902;50.420;18.854;2022-10-15T03:13:14;101122.10;;;12.11;75.00
55044;BME280;54902;50.420;18.854;2022-10-15T03:13:45;101122.95;;;12.12;75.01
55044;BME280;54902;50.420;18.854;2022-10-15T03:14:16;101120.35;;;12.10;75.05
55044;BME280;54902;50.420;18.854;2022-10-15T03:14:48;101112.99;;;12.11;75.04
55044;BME280;54902;50.420;18.854;2022-10-15T03:15:19;101117.62;;;12.10;75.04
55044;BME280;54902;50.420;18.854;2022-10-15T03:15:50;101110.39;;;12.09;75.07
55044;BME280;54902;50.420;18.854;2022-10-15T03:16:21;101109.53;;;12.09;75.08
55044;BME280;54902;50.420;18.854;2022-10-15T03:16:52;101113.27;;;12.08;75.08
55044;BME280;54902;50.420;18.854;2022-10-15T03:17:23;101109.66;;;12.07;75.09
55044;BME280;54902;50.420;18.854;2022-10-15T03:17:54;101121.48;;;12.08;75.07
55044;BME280;54902;50.420;18.854;2022-10-15T03:18:24;101104.20;;;12.07;75.09
55044;BME280;54902;50.420;18.854;2022-10-15T03:18:55;101111.52;;;12.07;75.09
55044;BME280;54902;50.420;18.854;2022-10-15T03:19:26;101111.52;;;12.07;75.09